Terminal Aerodrome Forecast
Issued by NWS Jackson, MS

Home | Current Version | Previous Version | Text Only | Print | Product List | Glossary On
Versions: 1 2 3 4 5 6 7 8 9 10 11 12 13 14 15 16 17 18
588
FTUS44 KJAN 231223 AAA
TAFGLH
TAF AMD
KGLH 231223Z 2312/2412 23013G21KT 1SM +TSRA BR SCT015 BKN035CB
     FM231400 21018G28KT 5SM SHRA VCTS BKN015 OVC050CB
     FM231600 22017G27KT 5SM SHRA VCTS BKN025 OVC050CB
     FM231900 23014G24KT P6SM VCTS SCT025 BKN050CB BKN250
     FM240100 23007KT P6SM VCTS BKN090CB BKN250
     FM240700 24003KT P6SM SHRA VCTS BKN050CB OVC130=

USA.gov is the U.S. government's official web portal to all federal, state and local government web resources and services.